Time;durP1;ratioP1;P1;durP2;ratioP2;P2;SDS_P1;SDS_P2;PMS_P1;PMS_P2;Temp;Humidity;BMP_temperature;BMP_pressure;BME280_temperature;BME280_humidity;BME280_pressure;Samples;Min_cycle;Max_cycle;Signal;HPM_P1;HPM_P2
2020/12/14 00:02:25;;;;;;;7.80;6.30;;;13.00;66.20;;;;;;5075968;28;20534;-49
2020/12/14 00:04:52;;;;;;;8.40;7.23;;;13.00;66.00;;;;;;5075904;28;20480;-49
2020/12/14 00:07:19;;;;;;;7.73;6.60;;;13.00;65.90;;;;;;5075569;28;20448;-50
2020/12/14 00:09:47;;;;;;;7.10;6.40;;;12.90;66.10;;;;;;5075338;28;20508;-51
2020/12/14 00:12:13;;;;;;;7.37;6.67;;;13.00;66.10;;;;;;5075848;28;20532;-51
2020/12/14 00:14:40;;;;;;;8.50;7.00;;;12.90;66.00;;;;;;5075739;28;20532;-50
2020/12/14 00:17:07;;;;;;;7.67;6.87;;;12.90;66.10;;;;;;5058078;28;20439;-50
2020/12/14 00:19:34;;;;;;;9.57;7.30;;;13.00;66.10;;;;;;5055766;28;20504;-53
2020/12/14 00:22:01;;;;;;;7.47;6.77;;;13.00;65.90;;;;;;5055065;28;20478;-53
2020/12/14 00:24:27;;;;;;;7.80;6.10;;;12.90;65.80;;;;;;5059454;28;20585;-52
2020/12/14 00:26:55;;;;;;;6.23;5.57;;;12.90;66.00;;;;;;5075658;28;20465;-51
2020/12/14 00:29:22;;;;;;;8.83;6.40;;;12.90;65.90;;;;;;5075704;28;20441;-51
2020/12/14 00:31:52;;;;;;;7.60;6.57;;;12.90;65.90;;;;;;5075053;28;20443;-52
2020/12/14 00:34:19;;;;;;;7.90;6.67;;;13.00;65.80;;;;;;5075055;28;20441;-49
2020/12/14 00:37:01;;;;;;;9.07;6.07;;;13.00;65.80;;;;;;5075378;28;20473;-54
2020/12/14 00:39:28;;;;;;;7.60;6.60;;;13.00;65.40;;;;;;5075386;28;20442;-54
2020/12/14 00:41:56;;;;;;;8.17;5.93;;;13.00;65.50;;;;;;5074725;28;20433;-48
2020/12/14 00:44:22;;;;;;;10.20;6.90;;;12.90;65.50;;;;;;5075156;28;20452;-54
2020/12/14 00:46:49;;;;;;;6.50;5.80;;;12.90;65.50;;;;;;5074944;28;20503;-50
2020/12/14 00:49:17;;;;;;;6.50;5.80;;;12.90;65.50;;;;;;5074127;28;20465;-55
2020/12/14 00:51:44;;;;;;;8.53;5.80;;;12.90;65.60;;;;;;5074394;28;20470;-52
2020/12/14 00:54:10;;;;;;;8.10;5.80;;;12.90;65.60;;;;;;5075016;28;20465;-53
2020/12/14 00:56:37;;;;;;;6.40;5.50;;;13.00;65.40;;;;;;5075034;28;20432;-49
2020/12/14 00:59:05;;;;;;;5.90;5.30;;;12.90;65.30;;;;;;5075070;28;20517;-48
2020/12/14 01:01:32;;;;;;;7.90;5.93;;;13.00;65.40;;;;;;5073980;28;20465;-50
2020/12/14 01:03:59;;;;;;;7.17;5.80;;;12.90;65.30;;;;;;5074997;28;20437;-47
2020/12/14 01:06:25;;;;;;;6.10;5.47;;;12.90;65.20;;;;;;5074605;28;20634;-49
2020/12/14 01:08:52;;;;;;;7.13;5.97;;;13.00;65.10;;;;;;5074751;28;20446;-48
2020/12/14 01:11:24;;;;;;;6.30;5.70;;;12.90;65.10;;;;;;5074086;28;20480;-47
2020/12/14 01:13:51;;;;;;;5.80;5.20;;;12.80;65.10;;;;;;5074688;28;20453;-49
2020/12/14 01:16:19;;;;;;;6.67;4.90;;;12.80;65.20;;;;;;5074762;28;20544;-49
2020/12/14 01:18:46;;;;;;;8.33;5.80;;;12.80;65.10;;;;;;5074884;28;20438;-48
2020/12/14 01:21:13;;;;;;;7.83;5.47;;;12.90;65.10;;;;;;5074002;28;20442;-47
2020/12/14 01:23:39;;;;;;;7.27;5.33;;;12.90;65.00;;;;;;5074546;28;20532;-48
2020/12/14 01:26:06;;;;;;;6.03;5.43;;;12.90;64.90;;;;;;5073030;28;20577;-52
2020/12/14 01:28:33;;;;;;;6.77;5.10;;;12.80;64.90;;;;;;5073591;28;20524;-48
2020/12/14 01:31:00;;;;;;;6.93;4.73;;;12.90;64.80;;;;;;5071055;28;20541;-52
2020/12/14 01:33:27;;;;;;;6.83;5.20;;;12.90;64.60;;;;;;5071319;28;20453;-50
2020/12/14 01:35:55;;;;;;;5.17;4.67;;;12.90;64.60;;;;;;5073106;28;20434;-54
2020/12/14 01:38:22;;;;;;;5.30;4.80;;;12.80;64.70;;;;;;5073621;28;20472;-53
2020/12/14 01:40:48;;;;;;;5.70;5.10;;;12.80;64.70;;;;;;5072606;28;20513;-51
2020/12/14 01:43:15;;;;;;;6.57;4.80;;;12.80;64.70;;;;;;5073483;28;20434;-54
2020/12/14 01:45:42;;;;;;;5.50;5.00;;;12.80;64.60;;;;;;5073246;28;20473;-49
2020/12/14 01:48:09;;;;;;;5.97;5.23;;;12.90;64.70;;;;;;5070468;28;20540;-47
2020/12/14 01:50:36;;;;;;;4.93;4.40;;;12.80;64.60;;;;;;5070644;28;20462;-47
2020/12/14 01:53:03;;;;;;;5.10;4.60;;;12.80;64.80;;;;;;5072019;28;20480;-48
2020/12/14 01:55:32;;;;;;;5.40;4.73;;;12.90;64.70;;;;;;5070093;28;20466;-48
2020/12/14 01:57:59;;;;;;;4.80;4.30;;;12.90;64.40;;;;;;5073087;28;20512;-51
2020/12/14 02:00:26;;;;;;;5.03;4.30;;;12.90;64.40;;;;;;5071822;28;20520;-50
2020/12/14 02:02:53;;;;;;;5.63;4.90;;;12.90;64.60;;;;;;5072860;28;20444;-50
2020/12/14 02:05:20;;;;;;;4.77;4.37;;;12.90;64.40;;;;;;5072639;28;20505;-48
2020/12/14 02:07:47;;;;;;;4.83;4.27;;;12.90;64.50;;;;;;5072659;28;20429;-47
2020/12/14 02:10:14;;;;;;;5.07;4.50;;;12.90;64.30;;;;;;5072309;28;20473;-52
2020/12/14 02:12:41;;;;;;;4.17;3.87;;;12.90;64.10;;;;;;5073042;28;20430;-51
2020/12/14 02:15:08;;;;;;;4.77;4.03;;;12.90;64.30;;;;;;5069958;28;20503;-50
2020/12/14 02:17:35;;;;;;;4.67;4.20;;;13.00;64.10;;;;;;5073215;28;20445;-53
2020/12/14 02:20:02;;;;;;;5.40;4.40;;;12.90;64.30;;;;;;5072182;28;20433;-48
2020/12/14 02:22:29;;;;;;;4.37;4.07;;;12.90;64.10;;;;;;5067790;28;20545;-48
2020/12/14 02:24:57;;;;;;;5.00;4.50;;;12.90;64.10;;;;;;5067647;28;20501;-49
2020/12/14 02:27:24;;;;;;;5.67;3.87;;;12.90;64.10;;;;;;5066742;28;20537;-54
2020/12/14 02:29:51;;;;;;;4.17;3.87;;;12.90;64.00;;;;;;5071995;28;20467;-51
2020/12/14 02:32:19;;;;;;;4.97;4.30;;;12.90;63.80;;;;;;5072389;28;20437;-52
2020/12/14 02:34:46;;;;;;;4.00;3.67;;;12.90;63.90;;;;;;5066529;28;20461;-49
2020/12/14 02:37:14;;;;;;;4.87;3.93;;;12.80;63.90;;;;;;5071118;28;20528;-49
2020/12/14 02:39:40;;;;;;;4.67;4.17;;;12.90;63.90;;;;;;5070267;28;20508;-52
2020/12/14 02:42:09;;;;;;;4.30;3.90;;;12.90;63.90;;;;;;5053578;28;20515;-52
2020/12/14 02:44:37;;;;;;;4.73;4.23;;;12.80;64.00;;;;;;5053285;28;20442;-52
2020/12/14 02:47:04;;;;;;;4.23;3.83;;;12.80;64.00;;;;;;5068199;28;20571;-54
2020/12/14 02:49:31;;;;;;;4.17;3.80;;;12.90;63.90;;;;;;5073581;28;20467;-52
2020/12/14 02:51:58;;;;;;;8.27;3.73;;;12.90;63.90;;;;;;5073008;28;20521;-53
2020/12/14 02:54:25;;;;;;;3.60;3.40;;;12.80;63.80;;;;;;5073160;28;20452;-52
2020/12/14 02:56:51;;;;;;;5.80;4.17;;;12.80;63.60;;;;;;5073428;28;20528;-49
2020/12/14 02:59:22;;;;;;;5.60;3.87;;;12.90;63.50;;;;;;5073191;28;20438;-50
2020/12/14 03:01:49;;;;;;;4.00;3.70;;;12.80;63.50;;;;;;5072968;28;20434;-50
2020/12/14 03:04:16;;;;;;;3.73;3.47;;;12.80;63.60;;;;;;5073455;28;20441;-52
2020/12/14 03:06:43;;;;;;;4.40;4.00;;;12.80;63.60;;;;;;5073621;28;20477;-53
2020/12/14 03:09:10;;;;;;;4.00;3.70;;;12.80;63.60;;;;;;5073853;28;20469;-50
2020/12/14 03:11:37;;;;;;;3.60;3.30;;;12.80;63.60;;;;;;5074218;28;20528;-54
2020/12/14 03:14:04;;;;;;;4.93;3.47;;;12.90;63.60;;;;;;5076718;28;20509;-52
2020/12/14 03:16:31;;;;;;;4.53;4.00;;;12.90;63.40;;;;;;5077234;28;20492;-52
2020/12/14 03:18:58;;;;;;;5.03;3.43;;;12.90;63.30;;;;;;5077128;28;20515;-51
2020/12/14 03:21:25;;;;;;;3.60;3.30;;;12.90;63.20;;;;;;5076351;28;20500;-53
2020/12/14 03:23:52;;;;;;;3.73;3.43;;;12.90;63.10;;;;;;5076821;28;20465;-52
2020/12/14 03:26:23;;;;;;;3.90;3.60;;;12.90;63.30;;;;;;5073766;28;20469;-51
2020/12/14 03:28:50;;;;;;;3.70;3.40;;;12.90;63.00;;;;;;5076765;28;20443;-53
2020/12/14 03:31:17;;;;;;;4.00;3.40;;;12.90;63.00;;;;;;5076121;28;20441;-51
2020/12/14 03:33:46;;;;;;;3.97;3.53;;;12.90;63.10;;;;;;5076445;28;20445;-54
2020/12/14 03:36:12;;;;;;;3.23;3.03;;;12.90;63.00;;;;;;5076876;28;20442;-51
2020/12/14 03:38:39;;;;;;;4.67;3.37;;;12.90;62.90;;;;;;5076428;28;20486;-49
2020/12/14 03:41:06;;;;;;;3.97;3.50;;;13.00;62.70;;;;;;5076234;28;20532;-54
2020/12/14 03:43:33;;;;;;;3.57;3.27;;;12.90;63.60;;;;;;5076739;28;20499;-51
2020/12/14 03:46:00;;;;;;;3.53;3.33;;;12.90;62.80;;;;;;5076353;28;20566;-49
2020/12/14 03:48:27;;;;;;;3.70;3.40;;;12.90;62.80;;;;;;5076302;28;20533;-53
2020/12/14 03:50:54;;;;;;;3.63;2.97;;;12.90;62.70;;;;;;5075945;28;20476;-50
2020/12/14 03:53:21;;;;;;;4.57;3.63;;;12.90;62.90;;;;;;5076205;28;20480;-52
2020/12/14 03:55:50;;;;;;;3.70;3.20;;;12.90;62.80;;;;;;5076387;28;20438;-51
2020/12/14 03:58:18;;;;;;;3.30;3.00;;;12.90;62.60;;;;;;5076093;28;20505;-51
2020/12/14 04:00:47;;;;;;;3.10;2.90;;;13.00;62.50;;;;;;5076034;28;20536;-52
2020/12/14 04:03:14;;;;;;;3.80;3.50;;;12.90;62.60;;;;;;5076288;28;20463;-50
2020/12/14 04:05:42;;;;;;;4.63;3.20;;;12.90;62.40;;;;;;5075806;28;20556;-53
2020/12/14 04:08:10;;;;;;;3.13;2.93;;;13.00;62.20;;;;;;5075683;28;20445;-50
2020/12/14 04:10:37;;;;;;;3.17;2.87;;;13.00;62.10;;;;;;5075562;28;20536;-54
2020/12/14 04:13:04;;;;;;;3.43;3.17;;;13.00;62.00;;;;;;5076165;28;20474;-52
2020/12/14 04:15:30;;;;;;;4.47;3.03;;;13.00;62.10;;;;;;5075991;28;20487;-53
2020/12/14 04:17:57;;;;;;;5.23;3.03;;;13.00;62.10;;;;;;5075799;28;20555;-51
2020/12/14 04:20:24;;;;;;;3.20;3.00;;;12.90;62.00;;;;;;5069968;28;20532;-51
2020/12/14 04:22:51;;;;;;;3.20;2.90;;;12.90;62.70;;;;;;5075297;28;20552;-51
2020/12/14 04:25:19;;;;;;;3.30;3.07;;;12.90;61.90;;;;;;5076115;28;20457;-48
2020/12/14 04:27:46;;;;;;;2.97;2.77;;;12.90;61.70;;;;;;5076033;28;20429;-49
2020/12/14 04:30:13;;;;;;;3.87;3.20;;;12.90;61.60;;;;;;5075287;28;20438;-50
2020/12/14 04:32:40;;;;;;;3.20;3.00;;;13.10;61.50;;;;;;5075387;28;20489;-53
2020/12/14 04:35:06;;;;;;;2.80;2.57;;;13.00;61.50;;;;;;5075501;28;20433;-47
2020/12/14 04:37:33;;;;;;;3.70;2.67;;;13.00;61.50;;;;;;5075524;28;20517;-51
2020/12/14 04:40:00;;;;;;;3.30;2.67;;;13.00;61.70;;;;;;5074977;28;20499;-54
2020/12/14 04:42:28;;;;;;;3.20;2.80;;;13.00;61.80;;;;;;5075020;28;20441;-54
2020/12/14 04:44:55;;;;;;;2.90;2.67;;;12.90;61.70;;;;;;5075472;28;20492;-54
2020/12/14 04:47:22;;;;;;;3.37;2.90;;;12.90;61.70;;;;;;5075158;28;20513;-48
2020/12/14 04:49:49;;;;;;;3.17;2.63;;;12.90;61.50;;;;;;5073953;28;20529;-50
2020/12/14 04:52:17;;;;;;;3.53;2.47;;;12.90;61.50;;;;;;5075239;28;20455;-50
2020/12/14 04:54:46;;;;;;;2.80;2.60;;;13.00;61.30;;;;;;5075234;28;20525;-50
2020/12/14 04:57:13;;;;;;;2.50;2.30;;;12.90;61.40;;;;;;5075196;28;20462;-51
2020/12/14 04:59:41;;;;;;;2.93;2.73;;;13.00;61.40;;;;;;5074502;28;20525;-50
2020/12/14 05:02:09;;;;;;;2.73;2.53;;;13.00;61.10;;;;;;5074816;28;20519;-53
2020/12/14 05:04:36;;;;;;;2.40;2.30;;;12.90;61.30;;;;;;5075150;28;20472;-54
2020/12/14 05:07:03;;;;;;;3.60;2.50;;;13.00;61.10;;;;;;5074863;28;20509;-52
2020/12/14 05:09:30;;;;;;;4.33;2.40;;;13.00;61.10;;;;;;5074995;28;20472;-52
2020/12/14 05:11:57;;;;;;;2.43;2.30;;;13.00;61.10;;;;;;5074533;28;20470;-51
2020/12/14 05:14:25;;;;;;;3.20;2.63;;;13.00;61.10;;;;;;5074812;28;20540;-53
2020/12/14 05:16:52;;;;;;;2.83;2.50;;;13.00;61.00;;;;;;5074283;28;20489;-51
2020/12/14 05:19:21;;;;;;;2.90;2.10;;;13.00;60.90;;;;;;5074788;28;20433;-54
2020/12/14 05:21:49;;;;;;;2.50;2.30;;;13.00;60.90;;;;;;5074684;28;20501;-54
2020/12/14 05:24:20;;;;;;;2.13;2.03;;;13.00;61.20;;;;;;5074507;28;20442;-51
2020/12/14 05:26:47;;;;;;;2.60;2.40;;;12.90;61.20;;;;;;5074295;28;20493;-50
2020/12/14 05:29:23;;;;;;;2.00;1.90;;;12.90;61.20;;;;;;5074378;28;20525;-53
2020/12/14 05:32:04;;;;;;;2.83;2.10;;;13.00;61.20;;;;;;5069157;28;20514;-51
2020/12/14 05:34:32;;;;;;;1.97;1.87;;;13.00;61.20;;;;;;5073516;28;20458;-54
2020/12/14 05:36:59;;;;;;;3.23;2.33;;;13.00;61.20;;;;;;5074361;28;20476;-53
2020/12/14 05:39:27;;;;;;;4.77;2.60;;;13.00;61.00;;;;;;5074444;28;20488;-49
2020/12/14 05:41:54;;;;;;;3.03;2.10;;;13.00;60.90;;;;;;5074054;28;20544;-53
2020/12/14 05:44:28;;;;;;;2.53;2.30;;;13.00;61.00;;;;;;5074480;28;20473;-50
2020/12/14 05:46:55;;;;;;;3.00;2.70;;;12.90;60.90;;;;;;5074154;28;20568;-51
2020/12/14 05:49:22;;;;;;;2.20;2.10;;;13.00;60.90;;;;;;5074165;28;20442;-53
2020/12/14 05:51:49;;;;;;;3.33;2.57;;;13.00;60.90;;;;;;5073583;28;20540;-53
2020/12/14 05:54:18;;;;;;;2.30;2.10;;;13.00;60.70;;;;;;5074323;28;20513;-48
2020/12/14 05:56:45;;;;;;;2.70;2.23;;;13.00;60.60;;;;;;5074195;28;20445;-52
2020/12/14 05:59:12;;;;;;;3.33;2.40;;;13.00;60.70;;;;;;5074239;28;20472;-53
2020/12/14 06:01:39;;;;;;;5.60;2.33;;;13.00;60.60;;;;;;5073376;28;20525;-53
2020/12/14 06:04:06;;;;;;;2.10;1.90;;;13.00;60.60;;;;;;5074191;28;20439;-50
2020/12/14 06:06:33;;;;;;;1.77;1.67;;;13.00;60.70;;;;;;5074023;28;20564;-53
2020/12/14 06:09:06;;;;;;;2.53;2.07;;;13.00;60.90;;;;;;5073612;28;20496;-52
2020/12/14 06:11:36;;;;;;;3.63;2.30;;;13.00;60.70;;;;;;5073614;28;20472;-52
2020/12/14 06:14:03;;;;;;;2.07;1.90;;;13.00;60.70;;;;;;5073966;28;20437;-54
2020/12/14 06:16:30;;;;;;;2.90;2.30;;;13.00;60.70;;;;;;5073928;28;20504;-51
2020/12/14 06:18:57;;;;;;;2.23;2.13;;;12.90;60.90;;;;;;5073773;28;20469;-54
2020/12/14 06:21:25;;;;;;;2.17;1.97;;;13.00;60.80;;;;;;5073156;28;20480;-52
2020/12/14 06:23:53;;;;;;;2.97;1.80;;;13.00;60.60;;;;;;5073843;28;20491;-53
2020/12/14 06:26:22;;;;;;;2.00;1.90;;;13.00;60.40;;;;;;5073956;28;20568;-54
2020/12/14 06:28:51;;;;;;;2.13;1.93;;;13.00;60.60;;;;;;5053637;28;20473;-53
2020/12/14 06:31:30;;;;;;;5.17;2.43;;;13.00;60.40;;;;;;5053002;28;20489;-51
2020/12/14 06:33:57;;;;;;;1.87;1.77;;;13.00;60.30;;;;;;5053485;28;20437;-54
2020/12/14 06:36:27;;;;;;;2.30;2.07;;;13.00;60.30;;;;;;5064010;28;20468;-52
2020/12/14 06:38:55;;;;;;;1.97;1.70;;;13.00;60.20;;;;;;5073985;28;20516;-49
2020/12/14 06:41:22;;;;;;;1.83;1.73;;;13.00;60.10;;;;;;5073140;28;20537;-53
2020/12/14 06:43:49;;;;;;;3.33;1.90;;;13.00;60.20;;;;;;5073737;28;20537;-50
2020/12/14 06:46:26;;;;;;;2.20;2.00;;;13.00;60.30;;;;;;5068732;28;20473;-51
2020/12/14 06:48:53;;;;;;;2.10;2.00;;;13.00;60.30;;;;;;5077670;28;20441;-52
2020/12/14 06:51:20;;;;;;;2.63;2.00;;;13.00;60.10;;;;;;5077361;28;20437;-50
2020/12/14 06:53:49;;;;;;;3.57;1.70;;;13.00;60.10;;;;;;5077382;28;20437;-51
2020/12/14 06:56:18;;;;;;;4.47;1.80;;;13.00;60.00;;;;;;5077585;28;20525;-52
2020/12/14 06:58:45;;;;;;;2.73;1.90;;;13.00;60.10;;;;;;5077341;28;20473;-51
2020/12/14 07:01:35;;;;;;;4.00;1.90;;;13.00;60.20;;;;;;5077126;28;20518;-51
2020/12/14 07:04:04;;;;;;;9.13;1.77;;;13.00;60.30;;;;;;5077494;28;20433;-54
2020/12/14 07:06:31;;;;;;;2.30;2.00;;;13.00;60.30;;;;;;5077327;28;20469;-53
2020/12/14 07:09:24;;;;;;;4.83;2.00;;;13.00;60.10;;;;;;5077450;28;20515;-52
2020/12/14 07:11:52;;;;;;;1.90;1.70;;;13.00;60.10;;;;;;5076913;28;20461;-52
2020/12/14 07:14:27;;;;;;;3.23;1.83;;;12.90;60.20;;;;;;5077528;28;20525;-53
2020/12/14 07:16:54;;;;;;;3.73;1.97;;;12.90;60.20;;;;;;5077155;28;20502;-53
2020/12/14 07:19:21;;;;;;;5.87;1.70;;;13.00;60.20;;;;;;5077069;28;20448;-49
2020/12/14 07:21:49;;;;;;;3.13;1.90;;;13.00;60.20;;;;;;5076446;28;20532;-51
2020/12/14 07:24:17;;;;;;;5.30;2.20;;;12.90;60.20;;;;;;5077076;28;20469;-53
2020/12/14 07:26:43;;;;;;;1.80;1.70;;;12.90;60.30;;;;;;5076989;28;20441;-48
2020/12/14 07:29:11;;;;;;;2.60;1.73;;;13.00;60.30;;;;;;5076735;28;20551;-53
2020/12/14 07:31:38;;;;;;;1.70;1.60;;;13.00;60.90;;;;;;5076124;28;20492;-48
2020/12/14 07:34:05;;;;;;;3.23;1.87;;;12.90;60.30;;;;;;5076811;28;20445;-55
2020/12/14 07:36:33;;;;;;;3.60;2.00;;;12.90;60.30;;;;;;5076611;28;20532;-49
2020/12/14 07:39:00;;;;;;;6.27;1.70;;;13.00;60.30;;;;;;5076698;28;20454;-50
2020/12/14 07:41:27;;;;;;;6.40;2.20;;;13.00;60.30;;;;;;5075999;28;20465;-51
2020/12/14 07:43:55;;;;;;;1.93;1.83;;;13.00;60.30;;;;;;5076456;28;20481;-52
2020/12/14 07:46:27;;;;;;;3.40;1.77;;;13.00;60.60;;;;;;5076325;28;20497;-53
2020/12/14 07:49:05;;;;;;;2.90;2.23;;;12.90;60.60;;;;;;5076408;28;20440;-53
2020/12/14 07:51:33;;;;;;;2.20;1.83;;;13.00;60.60;;;;;;5076108;28;20471;-52
2020/12/14 07:54:07;;;;;;;2.20;1.50;;;13.00;60.60;;;;;;5076837;28;20529;-52
2020/12/14 07:56:45;;;;;;;1.97;1.87;;;13.00;60.80;;;;;;5075985;28;20433;-53
2020/12/14 07:59:23;;;;;;;2.33;1.67;;;12.90;60.80;;;;;;5076194;28;20429;-49
2020/12/14 08:01:50;;;;;;;2.40;1.60;;;12.90;60.90;;;;;;5070660;28;20493;-52
2020/12/14 08:04:22;;;;;;;5.30;2.13;;;13.00;60.90;;;;;;5076072;28;20442;-52
2020/12/14 08:06:49;;;;;;;2.37;1.80;;;13.00;60.90;;;;;;5076218;28;20501;-49
2020/12/14 08:09:18;;;;;;;2.37;1.50;;;13.00;60.90;;;;;;5076205;28;20434;-54
2020/12/14 08:11:45;;;;;;;3.43;1.77;;;13.00;61.60;;;;;;5075293;28;20552;-52
2020/12/14 08:14:12;;;;;;;1.63;1.53;;;13.00;61.10;;;;;;5076004;28;20449;-49
2020/12/14 08:16:41;;;;;;;4.33;1.77;;;12.90;61.10;;;;;;5075975;28;20537;-53
2020/12/14 08:19:15;;;;;;;2.70;1.70;;;12.90;61.30;;;;;;5076413;28;20436;-52
2020/12/14 08:21:42;;;;;;;5.33;2.03;;;12.90;61.40;;;;;;5072458;28;20554;-54
2020/12/14 08:24:09;;;;;;;4.73;1.73;;;12.90;61.40;;;;;;5055794;28;20510;-51
2020/12/14 08:26:36;;;;;;;1.97;1.80;;;12.90;61.30;;;;;;5055651;28;20513;-51
2020/12/14 08:29:03;;;;;;;1.60;1.50;;;13.00;61.90;;;;;;5055864;28;20535;-51
2020/12/14 08:31:29;;;;;;;2.00;1.77;;;13.00;61.30;;;;;;5066088;28;20499;-52
2020/12/14 08:33:57;;;;;;;6.00;1.87;;;13.00;61.50;;;;;;5075864;28;20441;-54
2020/12/14 08:36:25;;;;;;;3.20;1.80;;;13.00;61.60;;;;;;5075479;28;20441;-50
2020/12/14 08:38:52;;;;;;;4.73;1.90;;;13.00;61.60;;;;;;5075208;28;20477;-50
2020/12/14 08:41:22;;;;;;;1.60;1.50;;;13.00;61.40;;;;;;5075044;28;20434;-55
2020/12/14 08:43:49;;;;;;;1.90;1.70;;;13.00;61.70;;;;;;5075737;28;20484;-52
2020/12/14 08:46:16;;;;;;;1.93;1.83;;;13.00;61.60;;;;;;5075081;28;20513;-51
2020/12/14 08:48:45;;;;;;;2.30;1.80;;;13.00;61.70;;;;;;5075295;28;20446;-53
2020/12/14 08:51:13;;;;;;;1.60;1.50;;;13.00;61.90;;;;;;5075049;28;20465;-53
2020/12/14 08:53:42;;;;;;;2.97;1.50;;;13.00;61.90;;;;;;5075512;28;20532;-51
2020/12/14 08:56:09;;;;;;;2.00;1.87;;;13.00;61.90;;;;;;5075142;28;20442;-54
2020/12/14 08:58:49;;;;;;;2.27;1.60;;;13.00;62.10;;;;;;5075173;28;20441;-55
2020/12/14 09:01:16;;;;;;;2.73;1.70;;;13.00;62.10;;;;;;5073946;28;20468;-54
2020/12/14 09:03:48;;;;;;;2.60;1.80;;;13.00;62.10;;;;;;5074892;28;20429;-51
2020/12/14 09:06:20;;;;;;;1.50;1.40;;;13.10;61.90;;;;;;5074800;28;20437;-51
2020/12/14 09:08:59;;;;;;;1.80;1.70;;;13.10;61.90;;;;;;5074232;28;20530;-54
2020/12/14 09:11:28;;;;;;;3.13;1.30;;;13.10;62.20;;;;;;5074405;28;20537;-49
2020/12/14 09:13:59;;;;;;;1.53;1.37;;;13.00;62.40;;;;;;5074858;28;20426;-51
2020/12/14 09:16:26;;;;;;;1.67;1.57;;;13.10;62.50;;;;;;5074056;28;20489;-50
2020/12/14 09:18:53;;;;;;;2.53;1.77;;;13.10;62.40;;;;;;5074822;28;20533;-52
2020/12/14 09:21:20;;;;;;;2.17;1.67;;;13.10;62.40;;;;;;5074218;28;20446;-50
2020/12/14 09:24:12;;;;;;;2.10;1.83;;;13.10;62.50;;;;;;5069903;28;20474;-51
2020/12/14 09:26:40;;;;;;;1.60;1.50;;;13.10;62.50;;;;;;5054570;28;20490;-47
2020/12/14 09:29:07;;;;;;;2.07;1.93;;;13.10;62.60;;;;;;5054152;28;20529;-48
2020/12/14 09:31:33;;;;;;;2.90;1.90;;;13.10;62.70;;;;;;5053946;28;20458;-50
2020/12/14 09:34:00;;;;;;;2.57;1.80;;;13.10;62.80;;;;;;5070443;28;20537;-52
2020/12/14 09:36:27;;;;;;;2.70;1.77;;;13.20;62.80;;;;;;5074324;28;20499;-51
2020/12/14 09:38:55;;;;;;;2.10;1.90;;;13.20;63.00;;;;;;5074524;28;20441;-49
2020/12/14 09:41:29;;;;;;;2.77;2.07;;;13.20;62.80;;;;;;5073359;28;20469;-49
2020/12/14 09:43:56;;;;;;;1.80;1.70;;;13.20;62.90;;;;;;5074431;28;20495;-49
2020/12/14 09:46:25;;;;;;;2.20;1.97;;;13.20;63.10;;;;;;5074207;28;20499;-50
2020/12/14 09:48:52;;;;;;;3.30;2.07;;;13.20;63.00;;;;;;5074261;28;20544;-48
2020/12/14 09:51:19;;;;;;;1.80;1.70;;;13.20;63.10;;;;;;5073369;28;20433;-50
2020/12/14 09:53:46;;;;;;;3.03;1.77;;;13.20;63.30;;;;;;5073788;28;20514;-51
2020/12/14 09:56:13;;;;;;;2.00;1.80;;;13.20;63.30;;;;;;5074188;28;20442;-50
2020/12/14 09:58:45;;;;;;;4.43;1.90;;;13.20;63.40;;;;;;5073668;28;20464;-54
2020/12/14 10:01:12;;;;;;;1.83;1.73;;;13.20;63.40;;;;;;5073240;28;20558;-48
2020/12/14 10:03:40;;;;;;;1.87;1.77;;;13.30;63.40;;;;;;5073901;28;20473;-48
2020/12/14 10:06:06;;;;;;;1.90;1.80;;;13.20;63.50;;;;;;5073828;28;20477;-48
2020/12/14 10:08:33;;;;;;;2.30;1.50;;;13.30;63.40;;;;;;5073091;28;20541;-49
2020/12/14 10:11:00;;;;;;;3.57;1.87;;;13.40;63.40;;;;;;5073253;28;20468;-50
2020/12/14 10:13:27;;;;;;;3.10;1.83;;;13.40;63.40;;;;;;5073916;28;20433;-49
2020/12/14 10:15:55;;;;;;;2.13;1.80;;;13.40;63.40;;;;;;5073864;28;20453;-48
2020/12/14 10:18:22;;;;;;;1.77;1.50;;;13.50;63.30;;;;;;5073712;28;20429;-49
2020/12/14 10:20:49;;;;;;;2.30;1.87;;;13.40;63.40;;;;;;5072701;28;20444;-50
2020/12/14 10:23:16;;;;;;;3.63;2.20;;;13.50;63.40;;;;;;5072513;28;20438;-51
2020/12/14 10:25:43;;;;;;;2.07;1.90;;;13.50;63.30;;;;;;5073667;28;20542;-49
2020/12/14 10:28:10;;;;;;;2.80;1.90;;;13.50;63.40;;;;;;5073772;28;20473;-47
2020/12/14 10:30:38;;;;;;;2.47;2.27;;;13.50;63.60;;;;;;5073368;28;20515;-49
2020/12/14 10:33:16;;;;;;;1.83;1.73;;;13.50;63.50;;;;;;5073633;28;20433;-47
2020/12/14 10:35:43;;;;;;;1.93;1.73;;;13.50;63.60;;;;;;5073619;28;20464;-47
2020/12/14 10:38:10;;;;;;;2.40;1.90;;;13.60;63.60;;;;;;5073984;28;20470;-49
2020/12/14 10:40:37;;;;;;;2.03;1.73;;;13.50;63.90;;;;;;5073189;28;20449;-49
2020/12/14 10:43:04;;;;;;;2.27;1.90;;;13.50;63.90;;;;;;5073308;28;20543;-51
2020/12/14 10:45:31;;;;;;;2.90;2.17;;;13.50;64.10;;;;;;5073768;28;20507;-48
2020/12/14 10:47:58;;;;;;;2.30;1.70;;;13.50;64.10;;;;;;5073348;28;20546;-49
2020/12/14 10:50:26;;;;;;;1.67;1.50;;;13.50;64.20;;;;;;5073284;28;20491;-47
2020/12/14 10:52:54;;;;;;;1.83;1.73;;;13.60;64.40;;;;;;5073248;28;20573;-51
2020/12/14 10:55:20;;;;;;;2.43;1.63;;;13.60;64.30;;;;;;5073596;28;20472;-48
2020/12/14 10:57:47;;;;;;;1.90;1.73;;;13.60;64.20;;;;;;5073739;28;20511;-48
2020/12/14 11:00:17;;;;;;;2.30;1.87;;;13.60;64.40;;;;;;5072384;28;20453;-49
2020/12/14 11:02:44;;;;;;;2.73;1.80;;;13.60;64.60;;;;;;5053287;28;20474;-47
2020/12/14 11:05:11;;;;;;;2.37;1.80;;;13.60;64.60;;;;;;5053534;28;20506;-47
2020/12/14 11:07:40;;;;;;;3.80;1.90;;;13.60;64.80;;;;;;5053485;28;20506;-47
2020/12/14 11:10:08;;;;;;;1.63;1.50;;;13.60;64.70;;;;;;5059081;28;20448;-49
2020/12/14 11:12:35;;;;;;;1.87;1.77;;;13.60;64.80;;;;;;5073466;28;20449;-48
2020/12/14 11:15:01;;;;;;;2.97;1.77;;;13.60;65.20;;;;;;5073611;28;20532;-48
2020/12/14 11:17:29;;;;;;;2.70;1.70;;;13.60;65.20;;;;;;5073523;28;20461;-50
2020/12/14 11:19:56;;;;;;;3.37;1.90;;;13.60;65.20;;;;;;5072678;28;20442;-49
2020/12/14 11:22:23;;;;;;;1.60;1.50;;;13.80;65.20;;;;;;5073182;28;20491;-50
2020/12/14 11:24:51;;;;;;;1.70;1.60;;;13.70;65.10;;;;;;5073631;28;20518;-53
2020/12/14 11:27:19;;;;;;;2.00;1.70;;;13.70;65.30;;;;;;5072869;28;20564;-52
2020/12/14 11:29:46;;;;;;;1.57;1.47;;;13.80;65.30;;;;;;5072564;28;20434;-55
2020/12/14 11:32:14;;;;;;;2.17;1.53;;;13.80;65.30;;;;;;5074062;28;20480;-52
2020/12/14 11:34:42;;;;;;;3.53;1.57;;;13.70;65.40;;;;;;5076798;28;20480;-51
2020/12/14 11:37:09;;;;;;;1.30;1.30;;;13.80;65.90;;;;;;5076477;28;20433;-50
2020/12/14 11:39:36;;;;;;;5.03;1.60;;;14.00;65.00;;;;;;5076536;28;20528;-52
2020/12/14 11:42:04;;;;;;;2.20;1.87;;;14.00;64.80;;;;;;5076380;28;20506;-50
2020/12/14 11:44:30;;;;;;;1.80;1.70;;;14.10;64.80;;;;;;5076785;28;20581;-51
2020/12/14 11:46:57;;;;;;;2.53;1.50;;;14.00;64.80;;;;;;5076472;28;20465;-52
2020/12/14 11:49:24;;;;;;;1.53;1.40;;;14.00;65.20;;;;;;5076300;28;20495;-50
2020/12/14 11:51:51;;;;;;;3.43;2.33;;;13.90;65.30;;;;;;5075678;28;20448;-51
2020/12/14 11:54:18;;;;;;;3.27;1.73;;;13.90;65.60;;;;;;5076216;28;20477;-48
2020/12/14 11:56:45;;;;;;;1.93;1.80;;;13.90;65.80;;;;;;5074605;28;20499;-50
2020/12/14 11:59:13;;;;;;;3.67;1.80;;;13.90;65.70;;;;;;5075926;28;20464;-51
2020/12/14 12:01:40;;;;;;;3.47;1.70;;;14.00;65.90;;;;;;5075103;28;20438;-54
2020/12/14 12:04:10;;;;;;;1.77;1.67;;;13.90;65.90;;;;;;5065103;28;20485;-54
2020/12/14 12:06:37;;;;;;;2.57;1.77;;;14.00;65.90;;;;;;5076137;28;20501;-51
2020/12/14 12:09:04;;;;;;;2.30;2.10;;;14.00;66.20;;;;;;5076072;28;20483;-53
2020/12/14 12:11:32;;;;;;;2.90;1.97;;;14.00;66.30;;;;;;5075285;28;20560;-51
2020/12/14 12:13:59;;;;;;;1.80;1.70;;;14.00;66.30;;;;;;5076078;28;20461;-53
2020/12/14 12:16:28;;;;;;;3.03;1.87;;;14.10;66.80;;;;;;5076534;28;20429;-54
2020/12/14 12:18:55;;;;;;;2.33;2.13;;;14.10;66.40;;;;;;5076103;28;20433;-52
2020/12/14 12:21:22;;;;;;;3.43;2.00;;;14.10;66.30;;;;;;5075409;28;20473;-53
2020/12/14 12:23:49;;;;;;;1.87;1.77;;;14.10;66.40;;;;;;5075141;28;20477;-51
2020/12/14 12:26:16;;;;;;;2.10;2.00;;;14.20;66.50;;;;;;5075683;28;20532;-48
2020/12/14 12:28:43;;;;;;;1.83;1.73;;;14.10;66.50;;;;;;5075597;28;20537;-54
2020/12/14 12:31:10;;;;;;;3.07;2.50;;;14.20;66.70;;;;;;5074876;28;20433;-55
2020/12/14 12:33:40;;;;;;;2.23;2.13;;;14.10;66.50;;;;;;5073711;28;20444;-53
2020/12/14 12:36:08;;;;;;;2.73;2.10;;;14.10;66.60;;;;;;5069941;28;20438;-51
2020/12/14 12:38:35;;;;;;;2.33;2.13;;;14.20;66.80;;;;;;5071533;28;20539;-51
2020/12/14 12:41:01;;;;;;;2.10;2.00;;;14.10;66.90;;;;;;5072398;28;20537;-52
2020/12/14 12:43:28;;;;;;;2.03;1.93;;;14.10;66.90;;;;;;5072896;28;20445;-53
2020/12/14 12:45:55;;;;;;;1.93;1.83;;;14.10;67.00;;;;;;5062188;28;20430;-52
2020/12/14 12:48:22;;;;;;;3.30;2.03;;;14.10;67.00;;;;;;5069777;28;20505;-55
2020/12/14 12:50:53;;;;;;;2.40;2.20;;;14.20;66.90;;;;;;5070982;28;20469;-55
2020/12/14 12:53:21;;;;;;;3.07;1.70;;;14.20;66.90;;;;;;5073704;28;20430;-58